This is the latest recevied weather packets stored in our database for station/object SQ2CDE-4. If no packets are shown the sender has not sent any weather packets the latest 10 day(s).
| Time | Temp. | Humidity | Pressure | Rain* | Wind** | Luminosity | Snow |
|---|---|---|---|---|---|---|---|
| 1777761931 | 8.89° C | 66% | 1016 hPa | - | - | - | - |
| 1777760726 | 10° C | 62% | 1016 hPa | - | - | - | - |
| 1777760122 | 10° C | 62% | 1016 hPa | - | - | - | - |
| 1777758917 | 8.89° C | 66% | 1016 hPa | - | - | - | - |
| 1777757109 | 10° C | 62% | 1016 hPa | - | - | - | - |
| 1777756506 | 10° C | 62% | 1016 hPa | - | - | - | - |
| 1777755903 | 11.11° C | 58% | 1016 hPa | - | - | - | - |
| 1777753490 | 11.11° C | 54% | 1016 hPa | - | - | - | - |
| 1777752886 | 11.11° C | 54% | 1016 hPa | - | - | - | - |
| 1777752282 | 12.78° C | 47% | 1016 hPa | - | - | - | - |
| 1777751679 | 12.78° C | 47% | 1016 hPa | - | - | - | - |
| 1777750473 | 12.78° C | 47% | 1016 hPa | - | - | - | - |
| 1777749870 | 12.78° C | 47% | 1016 hPa | - | - | - | - |
| 1777749267 | 12.78° C | 47% | 1016 hPa | - | - | - | - |
| 1777748663 | 15° C | 39% | 1016 hPa | - | - | - | - |
| 1777746855 | 16.11° C | 36% | 1016 hPa | - | - | - | - |
| 1777746252 | 16.11° C | 36% | 1016 hPa | - | - | - | - |
| 1777745649 | 16.11° C | 36% | 1016 hPa | - | - | - | - |
| 1777745046 | 17.22° C | 34% | 1016 hPa | - | - | - | - |
| 1777735991 | 26.11° C | 24% | 1018 hPa | - | - | - | - |
| 1777735389 | 26.11° C | 24% | 1018 hPa | - | - | - | - |
| 1777734784 | 26.11° C | 24% | 1018 hPa | - | - | - | - |
| 1777732369 | 27.22° C | 16% | 1018 hPa | - | - | - | - |
| 1777731766 | 27.22° C | 16% | 1018 hPa | - | - | - | - |
| 1777731163 | 27.22° C | 16% | 1018 hPa | - | - | - | - |
* Rain since midnight (hover to see other rain measurements)
** Current wind speed in m/s (hover to see current wind gust speed)